Guaraci, Brazil
Current Conditions -  °F | °C
As of 8:00 AM on Wednesday 28 Jan 2015 (Local Time) from SBSR Reporting Station
Light Rain Light Rain  
Wind Chill: 68°   Ceiling: 7000
Heat Index: 68°   Visibility: 4mi
Dew Point: 68°   Wind: 3mph
Humidity: 100%   Direction: 360°N
Pressure: 30"   Gusts: NA
Location:  20.5°S, 48.94°W
Report Text: SBSR 281000Z 36003KT 6000 -RA SCT010 OVC070 20/20 Q1016
Loading
Personal Weather Stations






























Interactive Weather Map New forecast layout! Learn more

10-Day Weather Forecast

Advertisements
Track Severe Weather on mobile